sensor_id;sensor_type;location;lat;lon;timestamp;pressure;altitude;pressure_sealevel;temperature;humidity
69784;BME280;57054;51.978;4.498;2022-09-30T00:00:19;100830.63;;;9.60;85.30
69784;BME280;57054;51.978;4.498;2022-09-30T00:02:44;100834.94;;;9.61;85.39
69784;BME280;57054;51.978;4.498;2022-09-30T00:05:10;100833.22;;;9.60;85.52
69784;BME280;57054;51.978;4.498;2022-09-30T00:07:35;100842.91;;;9.58;85.42
69784;BME280;57054;51.978;4.498;2022-09-30T00:10:00;100845.50;;;9.58;85.82
69784;BME280;57054;51.978;4.498;2022-09-30T00:12:27;100842.91;;;9.58;85.74
69784;BME280;57054;51.978;4.498;2022-09-30T00:14:53;100842.94;;;9.56;85.53
69784;BME280;57054;51.978;4.498;2022-09-30T00:17:18;100844.72;;;9.56;85.71
69784;BME280;57054;51.978;4.498;2022-09-30T00:19:44;100848.22;;;9.55;85.77
69784;BME280;57054;51.978;4.498;2022-09-30T00:22:11;100854.31;;;9.55;86.02
69784;BME280;57054;51.978;4.498;2022-09-30T00:24:37;100852.59;;;9.54;86.00
69784;BME280;57054;51.978;4.498;2022-09-30T00:27:02;100851.75;;;9.54;85.92
69784;BME280;57054;51.978;4.498;2022-09-30T00:29:27;100851.81;;;9.52;85.96
69784;BME280;57054;51.978;4.498;2022-09-30T00:31:53;100843.97;;;9.52;85.97
69784;BME280;57054;51.978;4.498;2022-09-30T00:34:18;100834.41;;;9.51;86.01
69784;BME280;57054;51.978;4.498;2022-09-30T00:36:48;100827.53;;;9.49;86.12
69784;BME280;57054;51.978;4.498;2022-09-30T00:39:17;100837.09;;;9.50;86.15
69784;BME280;57054;51.978;4.498;2022-09-30T00:41:45;100843.22;;;9.49;85.97
69784;BME280;57054;51.978;4.498;2022-09-30T00:53:06;100832.88;;;9.46;86.22
69784;BME280;57054;51.978;4.498;2022-09-30T00:57:58;100841.63;;;9.45;86.47
69784;BME280;57054;51.978;4.498;2022-09-30T01:00:25;100840.78;;;9.44;86.24
69784;BME280;57054;51.978;4.498;2022-09-30T01:02:51;100842.53;;;9.44;86.10
69784;BME280;57054;51.978;4.498;2022-09-30T01:05:17;100839.97;;;9.42;86.34
69784;BME280;57054;51.978;4.498;2022-09-30T01:07:44;100839.13;;;9.41;86.47
69784;BME280;57054;51.978;4.498;2022-09-30T01:10:11;100831.34;;;9.40;86.35
69784;BME280;57054;51.978;4.498;2022-09-30T01:12:37;100839.19;;;9.40;86.40
69784;BME280;57054;51.978;4.498;2022-09-30T01:15:03;100831.34;;;9.40;86.40
69784;BME280;57054;51.978;4.498;2022-09-30T01:17:50;100832.25;;;9.39;86.63
69784;BME280;57054;51.978;4.498;2022-09-30T01:20:39;100837.50;;;9.39;86.49
69784;BME280;57054;51.978;4.498;2022-09-30T01:39:37;100840.47;;;9.28;86.33
69784;BME280;57054;51.978;4.498;2022-09-30T01:42:21;100838.72;;;9.29;86.22
69784;BME280;57054;51.978;4.498;2022-09-30T01:44:51;100844.84;;;9.28;86.28
69784;BME280;57054;51.978;4.498;2022-09-30T01:47:27;100849.25;;;9.26;86.55
69784;BME280;57054;51.978;4.498;2022-09-30T01:50:15;100852.81;;;9.25;86.35
69784;BME280;57054;51.978;4.498;2022-09-30T01:55:23;100844.22;;;9.21;86.05
69784;BME280;57054;51.978;4.498;2022-09-30T01:57:58;100830.34;;;9.19;86.19
69784;BME280;57054;51.978;4.498;2022-09-30T02:00:26;100833.84;;;9.18;86.05
69784;BME280;57054;51.978;4.498;2022-09-30T02:02:59;100833.00;;;9.17;86.15
69784;BME280;57054;51.978;4.498;2022-09-30T02:05:40;100831.28;;;9.16;86.27
69784;BME280;57054;51.978;4.498;2022-09-30T02:08:12;100832.22;;;9.15;86.39
69784;BME280;57054;51.978;4.498;2022-09-30T02:10:46;100833.13;;;9.14;86.29
69784;BME280;57054;51.978;4.498;2022-09-30T02:13:17;100838.34;;;9.14;86.26
69784;BME280;57054;51.978;4.498;2022-09-30T02:15:50;100830.56;;;9.13;86.21
69784;BME280;57054;51.978;4.498;2022-09-30T02:20:53;100824.53;;;9.11;86.21
69784;BME280;57054;51.978;4.498;2022-09-30T02:23:26;100832.38;;;9.11;86.44
69784;BME280;57054;51.978;4.498;2022-09-30T02:26:22;100848.09;;;9.09;86.48
69784;BME280;57054;51.978;4.498;2022-09-30T02:28:55;100855.09;;;9.09;86.38
69784;BME280;57054;51.978;4.498;2022-09-30T02:31:25;100853.34;;;9.08;86.43
69784;BME280;57054;51.978;4.498;2022-09-30T02:33:53;100853.44;;;9.06;86.32
69784;BME280;57054;51.978;4.498;2022-09-30T02:36:25;100855.25;;;9.04;86.46
69784;BME280;57054;51.978;4.498;2022-09-30T02:39:02;100863.09;;;9.04;86.26
69784;BME280;57054;51.978;4.498;2022-09-30T02:41:33;100859.66;;;9.02;86.28
69784;BME280;57054;51.978;4.498;2022-09-30T02:44:02;100857.97;;;9.01;86.32
69784;BME280;57054;51.978;4.498;2022-09-30T02:49:10;100853.69;;;8.98;86.19
69784;BME280;57054;51.978;4.498;2022-09-30T02:57:21;100852.94;;;8.95;86.29
69784;BME280;57054;51.978;4.498;2022-09-30T02:59:52;100858.22;;;8.93;86.23
69784;BME280;57054;51.978;4.498;2022-09-30T03:02:19;100858.22;;;8.93;86.46
69784;BME280;57054;51.978;4.498;2022-09-30T03:04:47;100854.75;;;8.93;86.35
69784;BME280;57054;51.978;4.498;2022-09-30T03:07:13;100852.19;;;8.91;86.41
69784;BME280;57054;51.978;4.498;2022-09-30T03:09:39;100850.47;;;8.90;86.52
69784;BME280;57054;51.978;4.498;2022-09-30T03:12:20;100856.59;;;8.89;86.66
69784;BME280;57054;51.978;4.498;2022-09-30T03:15:14;100854.00;;;8.89;86.70
69784;BME280;57054;51.978;4.498;2022-09-30T03:29:08;100866.34;;;8.84;86.75
69784;BME280;57054;51.978;4.498;2022-09-30T03:31:39;100864.66;;;8.83;86.65
69784;BME280;57054;51.978;4.498;2022-09-30T03:39:19;100891.78;;;8.79;86.70
69784;BME280;57054;51.978;4.498;2022-09-30T03:44:43;100889.22;;;8.77;86.67
69784;BME280;57054;51.978;4.498;2022-09-30T03:47:13;100893.59;;;8.77;86.81
69784;BME280;57054;51.978;4.498;2022-09-30T03:49:49;100890.16;;;8.75;87.14
69784;BME280;57054;51.978;4.498;2022-09-30T03:52:16;100893.63;;;8.75;87.00
69784;BME280;57054;51.978;4.498;2022-09-30T03:54:56;100892.75;;;8.75;86.98
69784;BME280;57054;51.978;4.498;2022-09-30T03:57:27;100900.66;;;8.73;86.85
69784;BME280;57054;51.978;4.498;2022-09-30T03:59:54;100893.72;;;8.72;87.15
69784;BME280;57054;51.978;4.498;2022-09-30T04:02:19;100899.78;;;8.73;87.05
69784;BME280;57054;51.978;4.498;2022-09-30T04:04:45;100895.50;;;8.72;87.11
69784;BME280;57054;51.978;4.498;2022-09-30T04:07:10;100888.53;;;8.71;86.92
69784;BME280;57054;51.978;4.498;2022-09-30T04:09:37;100890.31;;;8.70;87.16
69784;BME280;57054;51.978;4.498;2022-09-30T04:12:04;100893.75;;;8.71;86.95
69784;BME280;57054;51.978;4.498;2022-09-30T04:14:30;100900.78;;;8.69;87.18
69784;BME280;57054;51.978;4.498;2022-09-30T04:16:55;100904.25;;;8.69;87.16
69784;BME280;57054;51.978;4.498;2022-09-30T04:19:21;100909.53;;;8.68;87.26
69784;BME280;57054;51.978;4.498;2022-09-30T04:21:46;100920.03;;;8.66;87.23
69784;BME280;57054;51.978;4.498;2022-09-30T04:24:12;100920.03;;;8.66;87.29
69784;BME280;57054;51.978;4.498;2022-09-30T04:26:37;100920.09;;;8.64;87.23
69784;BME280;57054;51.978;4.498;2022-09-30T04:29:03;100924.41;;;8.64;87.33
69784;BME280;57054;51.978;4.498;2022-09-30T04:31:28;100922.69;;;8.64;87.40
69784;BME280;57054;51.978;4.498;2022-09-30T04:33:55;100914.06;;;8.62;87.42
69784;BME280;57054;51.978;4.498;2022-09-30T04:36:21;100917.50;;;8.63;87.49
69784;BME280;57054;51.978;4.498;2022-09-30T04:38:47;100922.72;;;8.63;87.42
69784;BME280;57054;51.978;4.498;2022-09-30T04:41:14;100921.00;;;8.62;87.45
69784;BME280;57054;51.978;4.498;2022-09-30T04:43:46;100916.75;;;8.59;87.48
69784;BME280;57054;51.978;4.498;2022-09-30T04:46:17;100920.22;;;8.60;87.69
69784;BME280;57054;51.978;4.498;2022-09-30T04:48:44;100919.38;;;8.59;87.49
69784;BME280;57054;51.978;4.498;2022-09-30T04:51:18;100921.97;;;8.59;87.52
69784;BME280;57054;51.978;4.498;2022-09-30T04:53:45;100921.13;;;8.59;87.80
69784;BME280;57054;51.978;4.498;2022-09-30T04:56:11;100920.25;;;8.58;87.77
69784;BME280;57054;51.978;4.498;2022-09-30T04:58:36;100922.94;;;8.57;87.82
69784;BME280;57054;51.978;4.498;2022-09-30T05:01:04;100929.03;;;8.56;87.76
69784;BME280;57054;51.978;4.498;2022-09-30T05:03:30;100934.25;;;8.56;87.73
69784;BME280;57054;51.978;4.498;2022-09-30T05:05:56;100935.09;;;8.56;87.99
69784;BME280;57054;51.978;4.498;2022-09-30T05:08:21;100941.25;;;8.55;87.96
69784;BME280;57054;51.978;4.498;2022-09-30T05:13:21;100939.53;;;8.54;87.86
69784;BME280;57054;51.978;4.498;2022-09-30T05:15:47;100937.75;;;8.55;88.14
69784;BME280;57054;51.978;4.498;2022-09-30T05:18:13;100937.84;;;8.53;88.19
69784;BME280;57054;51.978;4.498;2022-09-30T05:20:38;100943.91;;;8.54;88.31
69784;BME280;57054;51.978;4.498;2022-09-30T05:23:04;100948.28;;;8.53;88.59
69784;BME280;57054;51.978;4.498;2022-09-30T05:25:30;100947.34;;;8.54;88.50
69784;BME280;57054;51.978;4.498;2022-09-30T05:27:56;100945.59;;;8.55;88.46
69784;BME280;57054;51.978;4.498;2022-09-30T05:30:21;100949.09;;;8.55;88.36
69784;BME280;57054;51.978;4.498;2022-09-30T05:32:46;100945.59;;;8.55;88.38
69784;BME280;57054;51.978;4.498;2022-09-30T05:35:12;100945.59;;;8.55;88.49
69784;BME280;57054;51.978;4.498;2022-09-30T05:37:38;100946.47;;;8.55;88.52
69784;BME280;57054;51.978;4.498;2022-09-30T05:40:05;100943.88;;;8.55;88.51
69784;BME280;57054;51.978;4.498;2022-09-30T05:42:31;100944.75;;;8.54;88.70
69784;BME280;57054;51.978;4.498;2022-09-30T05:45:00;100940.38;;;8.55;89.00
69784;BME280;57054;51.978;4.498;2022-09-30T05:47:25;100939.56;;;8.53;88.94
69784;BME280;57054;51.978;4.498;2022-09-30T05:49:51;100938.72;;;8.52;88.97
69784;BME280;57054;51.978;4.498;2022-09-30T05:52:16;100947.34;;;8.54;89.24
69784;BME280;57054;51.978;4.498;2022-09-30T05:54:41;100950.00;;;8.53;89.04
69784;BME280;57054;51.978;4.498;2022-09-30T05:57:07;100953.50;;;8.53;89.21
69784;BME280;57054;51.978;4.498;2022-09-30T05:59:32;100952.56;;;8.54;89.64
69784;BME280;57054;51.978;4.498;2022-09-30T06:01:58;100951.69;;;8.55;89.48
69784;BME280;57054;51.978;4.498;2022-09-30T06:04:23;100947.34;;;8.54;89.70
69784;BME280;57054;51.978;4.498;2022-09-30T06:06:49;100949.94;;;8.56;89.97
69784;BME280;57054;51.978;4.498;2022-09-30T06:09:15;100944.72;;;8.56;89.68
69784;BME280;57054;51.978;4.498;2022-09-30T06:11:40;100953.38;;;8.56;89.84
69784;BME280;57054;51.978;4.498;2022-09-30T06:14:07;100953.34;;;8.58;89.95
69784;BME280;57054;51.978;4.498;2022-09-30T06:16:32;100953.34;;;8.58;89.90
69784;BME280;57054;51.978;4.498;2022-09-30T06:18:58;100957.72;;;8.57;90.21
69784;BME280;57054;51.978;4.498;2022-09-30T06:21:23;100957.69;;;8.59;90.47
69784;BME280;57054;51.978;4.498;2022-09-30T06:23:49;100954.16;;;8.60;90.49
69784;BME280;57054;51.978;4.498;2022-09-30T06:26:14;100963.69;;;8.61;90.66
69784;BME280;57054;51.978;4.498;2022-09-30T06:28:41;100957.63;;;8.60;90.82
69784;BME280;57054;51.978;4.498;2022-09-30T06:31:07;100965.38;;;8.62;90.89
69784;BME280;57054;51.978;4.498;2022-09-30T06:33:33;100961.91;;;8.63;91.25
69784;BME280;57054;51.978;4.498;2022-09-30T06:35:59;100973.19;;;8.63;91.21
69784;BME280;57054;51.978;4.498;2022-09-30T06:38:28;100972.25;;;8.66;91.60
69784;BME280;57054;51.978;4.498;2022-09-30T06:40:54;100977.47;;;8.66;91.67
69784;BME280;57054;51.978;4.498;2022-09-30T06:43:20;100982.63;;;8.68;91.91
69784;BME280;57054;51.978;4.498;2022-09-30T06:45:47;100979.13;;;8.69;92.07
69784;BME280;57054;51.978;4.498;2022-09-30T06:48:15;100985.16;;;8.71;92.21
69784;BME280;57054;51.978;4.498;2022-09-30T06:50:41;100979.94;;;8.71;92.11
69784;BME280;57054;51.978;4.498;2022-09-30T06:53:07;100976.38;;;8.73;92.26
69784;BME280;57054;51.978;4.498;2022-09-30T06:55:34;100966.78;;;8.74;92.45
69784;BME280;57054;51.978;4.498;2022-09-30T06:58:03;100977.19;;;8.75;92.47
69784;BME280;57054;51.978;4.498;2022-09-30T07:00:28;100966.63;;;8.78;92.43
69784;BME280;57054;51.978;4.498;2022-09-30T07:02:54;100973.56;;;8.79;92.51
69784;BME280;57054;51.978;4.498;2022-09-30T07:05:21;100970.00;;;8.82;92.58
69784;BME280;57054;51.978;4.498;2022-09-30T07:07:47;100970.00;;;8.82;92.67
69784;BME280;57054;51.978;4.498;2022-09-30T07:10:13;100979.47;;;8.86;92.88
69784;BME280;57054;51.978;4.498;2022-09-30T07:12:38;100969.88;;;8.87;92.86
69784;BME280;57054;51.978;4.498;2022-09-30T07:15:06;100968.06;;;8.89;92.91
69784;BME280;57054;51.978;4.498;2022-09-30T07:17:32;100977.53;;;8.91;92.94
69784;BME280;57054;51.978;4.498;2022-09-30T07:19:57;100967.94;;;8.93;92.70
69784;BME280;57054;51.978;4.498;2022-09-30T07:22:23;100962.63;;;8.95;92.50
69784;BME280;57054;51.978;4.498;2022-09-30T07:24:53;100962.59;;;8.96;92.91
69784;BME280;57054;51.978;4.498;2022-09-30T07:27:19;100963.38;;;8.98;92.62
69784;BME280;57054;51.978;4.498;2022-09-30T07:29:45;100959.00;;;9.00;93.13
69784;BME280;57054;51.978;4.498;2022-09-30T07:32:11;100954.56;;;9.02;93.17
69784;BME280;57054;51.978;4.498;2022-09-30T07:34:37;100964.06;;;9.05;93.43
69784;BME280;57054;51.978;4.498;2022-09-30T07:37:13;100953.50;;;9.08;94.21
69784;BME280;57054;51.978;4.498;2022-09-30T07:39:46;100957.81;;;9.09;94.00
69784;BME280;57054;51.978;4.498;2022-09-30T07:42:14;100953.41;;;9.11;94.54
69784;BME280;57054;51.978;4.498;2022-09-30T07:44:40;100962.91;;;9.14;94.56
69784;BME280;57054;51.978;4.498;2022-09-30T07:47:12;100963.72;;;9.16;94.51
69784;BME280;57054;51.978;4.498;2022-09-30T07:49:40;100952.28;;;9.18;95.17
69784;BME280;57054;51.978;4.498;2022-09-30T07:52:06;100954.81;;;9.21;95.32
69784;BME280;57054;51.978;4.498;2022-09-30T07:54:32;100953.91;;;9.22;95.68
69784;BME280;57054;51.978;4.498;2022-09-30T07:56:59;100962.50;;;9.26;95.97
69784;BME280;57054;51.978;4.498;2022-09-30T07:59:26;100953.69;;;9.29;96.05
69784;BME280;57054;51.978;4.498;2022-09-30T08:01:52;100962.28;;;9.32;96.72
69784;BME280;57054;51.978;4.498;2022-09-30T08:04:19;100958.78;;;9.33;96.06
69784;BME280;57054;51.978;4.498;2022-09-30T08:06:49;100960.44;;;9.36;96.44
69784;BME280;57054;51.978;4.498;2022-09-30T08:09:18;100963.84;;;9.38;95.51
69784;BME280;57054;51.978;4.498;2022-09-30T08:11:44;100960.28;;;9.40;95.95
69784;BME280;57054;51.978;4.498;2022-09-30T08:14:17;100957.59;;;9.42;95.88
69784;BME280;57054;51.978;4.498;2022-09-30T08:16:43;100956.63;;;9.46;96.25
69784;BME280;57054;51.978;4.498;2022-09-30T08:19:19;100955.63;;;9.49;96.11
69784;BME280;57054;51.978;4.498;2022-09-30T08:21:45;100965.06;;;9.53;96.58
69784;BME280;57054;51.978;4.498;2022-09-30T08:24:11;100965.03;;;9.54;96.60
69784;BME280;57054;51.978;4.498;2022-09-30T08:26:37;100960.59;;;9.56;96.60
69784;BME280;57054;51.978;4.498;2022-09-30T08:29:03;100961.34;;;9.60;96.78
69784;BME280;57054;51.978;4.498;2022-09-30T08:31:28;100957.78;;;9.63;96.99
69784;BME280;57054;51.978;4.498;2022-09-30T08:33:54;100960.28;;;9.66;97.71
69784;BME280;57054;51.978;4.498;2022-09-30T08:36:22;100963.63;;;9.69;97.99
69784;BME280;57054;51.978;4.498;2022-09-30T08:38:48;100964.34;;;9.74;98.83
69784;BME280;57054;51.978;4.498;2022-09-30T08:51:54;100969.84;;;9.92;99.31
69784;BME280;57054;51.978;4.498;2022-09-30T08:54:24;100951.41;;;9.95;98.94
69784;BME280;57054;51.978;4.498;2022-09-30T08:56:50;100958.25;;;9.99;98.95
69784;BME280;57054;51.978;4.498;2022-09-30T08:59:36;100961.56;;;10.04;99.60
69784;BME280;57054;51.978;4.498;2022-09-30T09:04:39;100964.84;;;10.09;99.45
69784;BME280;57054;51.978;4.498;2022-09-30T09:09:47;100972.41;;;10.17;99.13
69784;BME280;57054;51.978;4.498;2022-09-30T09:17:41;100968.47;;;10.29;98.13
69784;BME280;57054;51.978;4.498;2022-09-30T09:20:15;100969.31;;;10.31;97.80
69784;BME280;57054;51.978;4.498;2022-09-30T09:22:42;100969.09;;;10.37;97.90
69784;BME280;57054;51.978;4.498;2022-09-30T09:25:17;100964.66;;;10.39;98.04
69784;BME280;57054;51.978;4.498;2022-09-30T09:27:53;100968.00;;;10.43;97.63
69784;BME280;57054;51.978;4.498;2022-09-30T09:30:21;100963.50;;;10.46;97.72
69784;BME280;57054;51.978;4.498;2022-09-30T09:33:02;100971.22;;;10.49;97.48
69784;BME280;57054;51.978;4.498;2022-09-30T09:38:30;100976.19;;;10.57;96.85
69784;BME280;57054;51.978;4.498;2022-09-30T09:46:32;100973.03;;;10.71;95.76
69784;BME280;57054;51.978;4.498;2022-09-30T09:49:29;100973.69;;;10.76;94.90
69784;BME280;57054;51.978;4.498;2022-09-30T09:52:04;100972.66;;;10.80;94.10
69784;BME280;57054;51.978;4.498;2022-09-30T09:54:50;100975.00;;;10.88;95.19
69784;BME280;57054;51.978;4.498;2022-09-30T09:57:19;100972.13;;;10.94;95.99
69784;BME280;57054;51.978;4.498;2022-09-30T10:00:05;100974.53;;;10.99;94.88
69784;BME280;57054;51.978;4.498;2022-09-30T10:05:45;100973.25;;;11.09;94.33
69784;BME280;57054;51.978;4.498;2022-09-30T10:08:22;100965.22;;;11.13;94.61
69784;BME280;57054;51.978;4.498;2022-09-30T10:10:53;100961.50;;;11.19;94.93
69784;BME280;57054;51.978;4.498;2022-09-30T10:13:26;100964.63;;;11.27;95.17
69784;BME280;57054;51.978;4.498;2022-09-30T10:15:55;100963.63;;;11.31;95.15
69784;BME280;57054;51.978;4.498;2022-09-30T10:18:33;100955.41;;;11.39;95.15
69784;BME280;57054;51.978;4.498;2022-09-30T10:21:18;100960.41;;;11.45;94.91
69784;BME280;57054;51.978;4.498;2022-09-30T10:23:45;100965.47;;;11.50;94.48
69784;BME280;57054;51.978;4.498;2022-09-30T10:28:59;100958.94;;;11.59;94.11
69784;BME280;57054;51.978;4.498;2022-09-30T10:31:31;100955.06;;;11.67;95.15
69784;BME280;57054;51.978;4.498;2022-09-30T10:36:36;100966.81;;;11.79;95.47
69784;BME280;57054;51.978;4.498;2022-09-30T10:39:07;100971.72;;;11.87;95.20
69784;BME280;57054;51.978;4.498;2022-09-30T10:41:37;100968.06;;;11.91;94.48
69784;BME280;57054;51.978;4.498;2022-09-30T10:44:06;100967.94;;;11.94;93.41
69784;BME280;57054;51.978;4.498;2022-09-30T10:46:38;100962.47;;;11.99;92.06
69784;BME280;57054;51.978;4.498;2022-09-30T10:49:12;100963.28;;;12.01;91.27
69784;BME280;57054;51.978;4.498;2022-09-30T10:51:44;100962.28;;;12.03;91.01
69784;BME280;57054;51.978;4.498;2022-09-30T10:57:05;100964.56;;;12.11;91.56
69784;BME280;57054;51.978;4.498;2022-09-30T10:59:39;100952.16;;;12.15;91.09
69784;BME280;57054;51.978;4.498;2022-09-30T11:05:23;100957.22;;;12.19;90.30
69784;BME280;57054;51.978;4.498;2022-09-30T11:13:42;100945.56;;;12.25;89.94
69784;BME280;57054;51.978;4.498;2022-09-30T11:19:27;100947.56;;;12.39;91.65
69784;BME280;57054;51.978;4.498;2022-09-30T11:22:20;100949.81;;;12.46;91.68
69784;BME280;57054;51.978;4.498;2022-09-30T11:24:45;100946.97;;;12.51;91.50
69784;BME280;57054;51.978;4.498;2022-09-30T11:32:53;100934.16;;;12.62;90.91
69784;BME280;57054;51.978;4.498;2022-09-30T11:40:40;100933.81;;;12.70;90.93
69784;BME280;57054;51.978;4.498;2022-09-30T11:49:09;100923.00;;;12.76;89.88
69784;BME280;57054;51.978;4.498;2022-09-30T11:57:06;100913.69;;;12.88;91.03
69784;BME280;57054;51.978;4.498;2022-09-30T11:59:43;100913.53;;;12.91;90.63
69784;BME280;57054;51.978;4.498;2022-09-30T12:04:53;100908.19;;;12.93;89.05
69784;BME280;57054;51.978;4.498;2022-09-30T12:07:30;100912.53;;;12.94;89.38
69784;BME280;57054;51.978;4.498;2022-09-30T12:10:02;100909.03;;;12.93;89.00
69784;BME280;57054;51.978;4.498;2022-09-30T12:12:30;100910.81;;;12.93;88.83
69784;BME280;57054;51.978;4.498;2022-09-30T12:15:02;100912.59;;;12.92;88.24
69784;BME280;57054;51.978;4.498;2022-09-30T12:20:15;100908.25;;;12.91;87.57
69784;BME280;57054;51.978;4.498;2022-09-30T12:22:44;100905.56;;;12.93;87.78
69784;BME280;57054;51.978;4.498;2022-09-30T12:25:31;100911.66;;;12.93;87.81
69784;BME280;57054;51.978;4.498;2022-09-30T12:31:18;100906.41;;;12.93;87.63
69784;BME280;57054;51.978;4.498;2022-09-30T12:37:34;100894.06;;;12.95;87.10
69784;BME280;57054;51.978;4.498;2022-09-30T12:45:16;100882.22;;;13.04;87.88
69784;BME280;57054;51.978;4.498;2022-09-30T12:47:48;100868.94;;;13.07;88.46
69784;BME280;57054;51.978;4.498;2022-09-30T12:50:19;100880.13;;;13.11;88.35
69784;BME280;57054;51.978;4.498;2022-09-30T12:52:47;100862.44;;;13.14;88.18
69784;BME280;57054;51.978;4.498;2022-09-30T12:55:26;100859.56;;;13.19;87.93
69784;BME280;57054;51.978;4.498;2022-09-30T12:57:54;100862.97;;;13.21;87.58
69784;BME280;57054;51.978;4.498;2022-09-30T13:00:23;100861.94;;;13.23;86.85
69784;BME280;57054;51.978;4.498;2022-09-30T13:02:57;100853.16;;;13.24;86.87
69784;BME280;57054;51.978;4.498;2022-09-30T13:10:30;100849.56;;;13.25;86.93
69784;BME280;57054;51.978;4.498;2022-09-30T13:28:47;100839.28;;;13.38;81.15
69784;BME280;57054;51.978;4.498;2022-09-30T13:31:13;100843.56;;;13.41;81.43
69784;BME280;57054;51.978;4.498;2022-09-30T13:34:10;100845.16;;;13.43;82.49
69784;BME280;57054;51.978;4.498;2022-09-30T13:39:24;100840.59;;;13.47;81.58
69784;BME280;57054;51.978;4.498;2022-09-30T13:44:43;100842.31;;;13.48;79.72
69784;BME280;57054;51.978;4.498;2022-09-30T13:47:38;100836.09;;;13.49;81.25
69784;BME280;57054;51.978;4.498;2022-09-30T13:50:28;100841.38;;;13.49;80.55
69784;BME280;57054;51.978;4.498;2022-09-30T13:52:58;100843.06;;;13.50;80.51
69784;BME280;57054;51.978;4.498;2022-09-30T13:55:27;100845.63;;;13.52;80.27
69784;BME280;57054;51.978;4.498;2022-09-30T14:00:35;100845.44;;;13.55;80.02
69784;BME280;57054;51.978;4.498;2022-09-30T14:06:22;100841.06;;;13.55;80.45
69784;BME280;57054;51.978;4.498;2022-09-30T14:09:09;100828.75;;;13.56;80.11
69784;BME280;57054;51.978;4.498;2022-09-30T14:14:42;100813.63;;;13.59;79.97
69784;BME280;57054;51.978;4.498;2022-09-30T14:17:30;100809.13;;;13.61;79.68
69784;BME280;57054;51.978;4.498;2022-09-30T14:20:35;100803.81;;;13.63;80.53
69784;BME280;57054;51.978;4.498;2022-09-30T14:23:12;100805.59;;;13.62;79.51
69784;BME280;57054;51.978;4.498;2022-09-30T14:25:44;100787.25;;;13.61;76.67
69784;BME280;57054;51.978;4.498;2022-09-30T14:28:20;100787.16;;;13.62;77.65
69784;BME280;57054;51.978;4.498;2022-09-30T14:30:58;100795.91;;;13.63;79.28
69784;BME280;57054;51.978;4.498;2022-09-30T14:33:34;100792.31;;;13.64;79.00
69784;BME280;57054;51.978;4.498;2022-09-30T14:36:02;100795.91;;;13.63;77.85
69784;BME280;57054;51.978;4.498;2022-09-30T14:38:31;100795.06;;;13.62;78.20
69784;BME280;57054;51.978;4.498;2022-09-30T14:41:01;100786.31;;;13.62;79.26
69784;BME280;57054;51.978;4.498;2022-09-30T14:43:35;100796.91;;;13.60;79.12
69784;BME280;57054;51.978;4.498;2022-09-30T14:46:07;100802.16;;;13.60;78.82
69784;BME280;57054;51.978;4.498;2022-09-30T14:48:36;100796.91;;;13.60;79.28
69784;BME280;57054;51.978;4.498;2022-09-30T14:51:11;100790.78;;;13.60;78.68
69784;BME280;57054;51.978;4.498;2022-09-30T14:53:52;100798.69;;;13.60;78.65
69784;BME280;57054;51.978;4.498;2022-09-30T14:56:35;100795.16;;;13.61;78.45
69784;BME280;57054;51.978;4.498;2022-09-30T14:59:18;100789.00;;;13.60;77.88
69784;BME280;57054;51.978;4.498;2022-09-30T15:01:45;100788.84;;;13.63;80.36
69784;BME280;57054;51.978;4.498;2022-09-30T15:04:17;100786.22;;;13.63;78.65
69784;BME280;57054;51.978;4.498;2022-09-30T15:06:49;100776.53;;;13.64;79.17
69784;BME280;57054;51.978;4.498;2022-09-30T15:09:21;100779.09;;;13.66;79.98
69784;BME280;57054;51.978;4.498;2022-09-30T15:11:47;100787.75;;;13.68;79.27
69784;BME280;57054;51.978;4.498;2022-09-30T15:14:17;100788.63;;;13.68;79.65
69784;BME280;57054;51.978;4.498;2022-09-30T15:16:53;100787.75;;;13.68;78.87
69784;BME280;57054;51.978;4.498;2022-09-30T15:19:25;100785.97;;;13.68;80.21
69784;BME280;57054;51.978;4.498;2022-09-30T15:21:56;100780.72;;;13.68;79.79
69784;BME280;57054;51.978;4.498;2022-09-30T15:24:24;100793.88;;;13.68;80.39
69784;BME280;57054;51.978;4.498;2022-09-30T15:26:51;100790.38;;;13.68;78.61
69784;BME280;57054;51.978;4.498;2022-09-30T15:29:17;100791.31;;;13.67;80.17
69784;BME280;57054;51.978;4.498;2022-09-30T15:31:45;100778.25;;;13.65;79.68
69784;BME280;57054;51.978;4.498;2022-09-30T15:34:15;100785.31;;;13.65;80.11
69784;BME280;57054;51.978;4.498;2022-09-30T15:36:41;100792.31;;;13.64;79.92
69784;BME280;57054;51.978;4.498;2022-09-30T15:39:22;100788.00;;;13.63;80.32
69784;BME280;57054;51.978;4.498;2022-09-30T15:41:50;100783.59;;;13.63;80.12
69784;BME280;57054;51.978;4.498;2022-09-30T15:44:18;100782.91;;;13.60;78.94
69784;BME280;57054;51.978;4.498;2022-09-30T15:47:06;100775.84;;;13.60;79.25
69784;BME280;57054;51.978;4.498;2022-09-30T15:49:42;100773.34;;;13.59;80.13
69784;BME280;57054;51.978;4.498;2022-09-30T15:52:30;100775.09;;;13.58;80.33
69784;BME280;57054;51.978;4.498;2022-09-30T15:55:01;100768.06;;;13.59;80.68
69784;BME280;57054;51.978;4.498;2022-09-30T15:57:53;100764.66;;;13.57;80.12
69784;BME280;57054;51.978;4.498;2022-09-30T16:00:35;100769.91;;;13.57;80.54
69784;BME280;57054;51.978;4.498;2022-09-30T16:03:24;100765.66;;;13.54;80.46
69784;BME280;57054;51.978;4.498;2022-09-30T16:05:50;100770.09;;;13.54;80.83
69784;BME280;57054;51.978;4.498;2022-09-30T16:08:27;100762.19;;;13.54;80.50
69784;BME280;57054;51.978;4.498;2022-09-30T16:10:57;100764.06;;;13.52;80.35
69784;BME280;57054;51.978;4.498;2022-09-30T16:13:28;100758.69;;;13.53;80.91
69784;BME280;57054;51.978;4.498;2022-09-30T16:15:55;100760.56;;;13.51;81.18
69784;BME280;57054;51.978;4.498;2022-09-30T16:18:28;100745.66;;;13.52;80.83
69784;BME280;57054;51.978;4.498;2022-09-30T16:21:04;100751.84;;;13.51;80.37
69784;BME280;57054;51.978;4.498;2022-09-30T16:23:37;100757.09;;;13.51;81.10